NCAR-RAP Real-Time Weather Data

Output produced by METARs form (12 August 2020  18:43 UTC)
found at http://weather.rap.ucar.edu/surface/
 
KACY 121754Z 18009KT 10SM SCT110 31/23 A3001 RMK AO2 SLP160 T03060233 10328 20267 58006
KACY 121254Z 19005KT 10SM CLR 28/24 A3003 RMK AO2 SLP169 T02830244
KACY 121154Z 21004KT 9SM CLR 27/24 A3003 RMK AO2 SLP167 T02670239 10267 20244 51014
KACY 121054Z 19003KT 5SM BR SCT003 24/23 A3002 RMK AO2 SLP164 T02440233
KACY 121045Z VRB03KT 5SM BR SCT003 24/23 A3002 RMK AO2 T02440228
KACY 120954Z 18004KT 7SM CLR 24/23 A3000 RMK AO2 SLP158 T02440228
KACY 120854Z 19003KT 6SM BR CLR 25/23 A2999 RMK AO2 SLP153 T02500233 56002
KACY 120754Z 00000KT 7SM CLR 25/23 A2999 RMK AO2 SLP154 T02500233
KACY 120654Z 21004KT 7SM CLR 25/23 A2999 RMK AO2 SLP153 T02500233
KACY 120554Z 20003KT 6SM BR CLR 25/23 A2999 RMK AO2 SLP155 T02500233 10267 20250 51006
KACY 120454Z 18005KT 7SM CLR 26/23 A2999 RMK AO2 SLP153 T02560233 403110233
KACY 120424Z 20005KT 8SM FEW005 26/23 A2998 RMK AO2 T02560233
KACY 120354Z 20005KT 8SM CLR 26/23 A2998 RMK AO2 SLP152 T02560233
KACY 120254Z 19006KT 10SM CLR 26/23 A2997 RMK AO2 SLP149 T02560233 51008
KACY 120154Z 19008KT 10SM CLR 26/23 A2997 RMK AO2 SLP146 T02610228
KACY 120054Z 19008KT 10SM CLR 26/23 A2996 RMK AO2 SLP144 T02610228
KACY 112354Z 19008KT 10SM CLR 27/23 A2995 RMK AO2 SLP141 T02670233 10306 20267 50003
KACY 112254Z 20012KT 10SM CLR 28/23 A2995 RMK AO2 SLP142 T02780233
KACY 112154Z 20011KT 10SM FEW016 29/24 A2995 RMK AO2 SLP140 T02890239
KACY 112054Z 18010G19KT 10SM CLR 29/21 A2994 RMK AO2 SLP138 T02940211 56012
KACY 111954Z 19013G21KT 10SM FEW018 29/23 A2995 RMK AO2 SLP141 T02940233
KACY 111854Z 18011KT 10SM SCT110 29/23 A2996 RMK AO2 SLP146 T02940228
KACY 111754Z 19007KT 10SM FEW110 31/23 A2998 RMK AO2 SLP150 T03060228 10311 20239 58010
KACY 111654Z 15010KT 10SM CLR 31/23 A2999 RMK AO2 SLP155 T03060228
KACY 111554Z 15010G14KT 10SM FEW025 31/23 A3000 RMK AO2 SLP157 T03060233
KACY 111454Z 20007KT 10SM FEW020 29/23 A3001 RMK AO2 SLP160 T02940233 53004
KACY 111403Z VRB05KT 10SM SCT006 SCT010 27/23 A3000 RMK AO2 T02720233
KACY 111354Z 23005KT 10SM BKN005 BKN010 27/24 A3000 RMK AO2 CIG 005V008 SLP156 T02720239
KACY 111341Z 18004KT 1SM OVC005 26/24 A2999 RMK AO2 SFC VIS 9 T02610239
KACY 111254Z 18003KT 1SM BR OVC002 24/24 A3000 RMK AO2 SFC VIS 4 SLP156 T02440239
KACY 111241Z VRB03KT 1 1/4SM BR OVC002 24/23 A3000 RMK AO2 TWR VIS 1 1/2 T02440233
KACY 111229Z 18004KT 1/2SM BR OVC002 24/23 A3000 RMK AO2 SFC VIS 1 3/4 T02440233
KACY 111220Z 22003KT 1 1/2SM BR OVC002 24/24 A3000 RMK AO2 VIS 1V2 1/2 T02440239
KACY 111154Z 20004KT 1/2SM FG OVC002 24/23 A3000 RMK AO2 SLP157 T02390233 10239 20233 51008
KACY 111122Z 19005KT 1/2SM FG OVC002 24/23 A2999 RMK AO2 T02390233
KACY 111115Z 00000KT 1/4SM FG OVC002 24/23 A2999 RMK AO2 TWR VIS 1 1/2 T02390233
KACY 111054Z 20007KT 1/2SM FG OVC002 24/23 A2999 RMK AO2 TWR VIS 1 1/2 SLP154 T02390228
KACY 111039Z 21007KT 3/4SM BR OVC002 24/23 A2999 RMK AO2 TWR VIS 1 1/2 T02390228
KACY 110954Z 17004KT 1 1/2SM BR OVC002 24/23 A2999 RMK AO2 SLP153 T02390228
KACY 110927Z 18005KT 1 1/2SM BR OVC002 23/22 A2998 RMK AO2 SFC VIS 3 T02330222
KACY 110917Z 18004KT 2SM BR OVC002 23/23 A2998 RMK AO2 VIS 1 1/4V4 T02330228
KACY 110904Z 16004KT 1 1/4SM BR OVC002 23/22 A2997 RMK AO2 T02330222
KACY 110854Z 16004KT 2 1/2SM BR OVC002 23/23 A2997 RMK AO2 SLP149 T02330228 56009
KACY 110821Z 19005KT 3SM BR OVC002 24/22 A2998 RMK AO2 T02390222
KACY 110804Z 20004KT 9SM SCT003 24/22 A2998 RMK AO2 T02390222
KACY 110754Z 19003KT 10SM CLR 24/22 A2998 RMK AO2 SLP151 T02390222
KACY 110654Z 18004KT 10SM CLR 24/22 A2998 RMK AO2 SLP152 T02390222
KACY 110554Z 20003KT 10SM CLR 24/22 A3000 RMK AO2 SLP158 T02390217 10272 20239 58003
KACY 110454Z 21004KT 10SM CLR 24/22 A3001 RMK AO2 SLP161 T02440217 403220228
KACY 110354Z 20004KT 10SM CLR 24/21 A3001 RMK AO2 SLP160 T02440211
KACY 110254Z 20005KT 10SM CLR 25/21 A3001 RMK AO2 SLP160 T02500211 51008
KACY 110154Z 17005KT 10SM CLR 26/21 A3000 RMK AO2 SLP159 T02560211
KACY 110054Z 19005KT 10SM CLR 26/22 A2999 RMK AO2 SLP155 T02610217
KACY 102354Z 18006KT 10SM CLR 27/22 A2998 RMK AO2 SLP152 T02720217 10317 20272 56007
KACY 102254Z 20011G17KT 10SM CLR 29/23 A2999 RMK AO2 SLP153 T02890228
KACY 102154Z 20013G20KT 10SM CLR 29/23 A3000 RMK AO2 SLP157 T02940228
KACY 102054Z 17012G19KT 10SM CLR 30/23 A3001 RMK AO2 SLP160 T03000228 56009
KACY 101954Z AUTO 19012G19KT 10SM CLR 31/22 A3001 RMK AO2 SLP161 T03110222 TSNO
KACY 101854Z AUTO 16010G18KT 10SM CLR 31/23 A3002 RMK AO2 SLP165 T03060233 TSNO